sensor_id;sensor_type;location;lat;lon;timestamp;P1;durP1;ratioP1;P2;durP2;ratioP2
21392;SDS011;10857;52.228;21.026;2024-01-27T00:00:32;22.97;;;12.17;;
21392;SDS011;10857;52.228;21.026;2024-01-27T00:02:59;23.33;;;11.77;;
21392;SDS011;10857;52.228;21.026;2024-01-27T00:05:26;17.20;;;9.47;;
21392;SDS011;10857;52.228;21.026;2024-01-27T00:07:57;14.70;;;6.93;;
21392;SDS011;10857;52.228;21.026;2024-01-27T00:10:24;15.37;;;6.37;;
21392;SDS011;10857;52.228;21.026;2024-01-27T00:12:51;10.43;;;6.00;;
21392;SDS011;10857;52.228;21.026;2024-01-27T00:15:18;9.10;;;4.60;;
21392;SDS011;10857;52.228;21.026;2024-01-27T00:17:45;8.83;;;3.50;;
21392;SDS011;10857;52.228;21.026;2024-01-27T00:20:12;10.10;;;3.83;;
21392;SDS011;10857;52.228;21.026;2024-01-27T00:22:39;8.17;;;3.50;;
21392;SDS011;10857;52.228;21.026;2024-01-27T00:25:06;10.30;;;3.07;;
21392;SDS011;10857;52.228;21.026;2024-01-27T00:27:33;8.60;;;2.30;;
21392;SDS011;10857;52.228;21.026;2024-01-27T00:30:01;6.00;;;2.17;;
21392;SDS011;10857;52.228;21.026;2024-01-27T00:32:28;7.30;;;1.70;;
21392;SDS011;10857;52.228;21.026;2024-01-27T00:34:55;6.37;;;1.97;;
21392;SDS011;10857;52.228;21.026;2024-01-27T00:37:22;7.83;;;2.07;;
21392;SDS011;10857;52.228;21.026;2024-01-27T00:39:49;8.83;;;2.00;;
21392;SDS011;10857;52.228;21.026;2024-01-27T00:42:16;9.27;;;2.20;;
21392;SDS011;10857;52.228;21.026;2024-01-27T00:44:45;7.37;;;2.47;;
21392;SDS011;10857;52.228;21.026;2024-01-27T00:47:12;11.27;;;2.23;;
21392;SDS011;10857;52.228;21.026;2024-01-27T00:49:39;9.50;;;2.10;;
21392;SDS011;10857;52.228;21.026;2024-01-27T00:52:06;9.53;;;1.77;;
21392;SDS011;10857;52.228;21.026;2024-01-27T00:54:33;11.60;;;1.90;;
21392;SDS011;10857;52.228;21.026;2024-01-27T00:57:00;8.40;;;1.80;;
21392;SDS011;10857;52.228;21.026;2024-01-27T00:59:28;12.57;;;2.23;;
21392;SDS011;10857;52.228;21.026;2024-01-27T01:01:56;13.00;;;2.27;;
21392;SDS011;10857;52.228;21.026;2024-01-27T01:04:23;10.10;;;1.90;;
21392;SDS011;10857;52.228;21.026;2024-01-27T01:06:50;10.57;;;2.10;;
21392;SDS011;10857;52.228;21.026;2024-01-27T01:09:17;9.70;;;2.10;;
21392;SDS011;10857;52.228;21.026;2024-01-27T01:11:44;12.23;;;2.30;;
21392;SDS011;10857;52.228;21.026;2024-01-27T01:14:11;7.47;;;2.00;;
21392;SDS011;10857;52.228;21.026;2024-01-27T01:16:39;12.37;;;2.37;;
21392;SDS011;10857;52.228;21.026;2024-01-27T01:19:06;9.33;;;1.90;;
21392;SDS011;10857;52.228;21.026;2024-01-27T01:21:34;10.40;;;2.30;;
21392;SDS011;10857;52.228;21.026;2024-01-27T01:24:01;8.73;;;1.77;;
21392;SDS011;10857;52.228;21.026;2024-01-27T01:26:28;10.00;;;2.00;;
21392;SDS011;10857;52.228;21.026;2024-01-27T01:28:55;11.73;;;2.37;;
21392;SDS011;10857;52.228;21.026;2024-01-27T01:31:22;9.33;;;2.17;;
21392;SDS011;10857;52.228;21.026;2024-01-27T01:33:49;10.80;;;2.17;;
21392;SDS011;10857;52.228;21.026;2024-01-27T01:36:16;11.80;;;2.17;;
21392;SDS011;10857;52.228;21.026;2024-01-27T01:38:43;10.03;;;1.80;;
21392;SDS011;10857;52.228;21.026;2024-01-27T01:41:11;10.83;;;2.20;;
21392;SDS011;10857;52.228;21.026;2024-01-27T01:43:38;9.23;;;1.80;;
21392;SDS011;10857;52.228;21.026;2024-01-27T01:46:05;12.30;;;2.27;;
21392;SDS011;10857;52.228;21.026;2024-01-27T01:48:32;10.20;;;2.40;;
21392;SDS011;10857;52.228;21.026;2024-01-27T01:51:00;7.90;;;1.77;;
21392;SDS011;10857;52.228;21.026;2024-01-27T01:53:27;10.47;;;1.90;;
21392;SDS011;10857;52.228;21.026;2024-01-27T01:55:54;15.73;;;2.20;;
21392;SDS011;10857;52.228;21.026;2024-01-27T01:58:22;10.30;;;2.10;;
21392;SDS011;10857;52.228;21.026;2024-01-27T02:00:49;9.43;;;1.97;;
21392;SDS011;10857;52.228;21.026;2024-01-27T02:03:16;11.00;;;2.03;;
21392;SDS011;10857;52.228;21.026;2024-01-27T02:05:43;13.73;;;2.27;;
21392;SDS011;10857;52.228;21.026;2024-01-27T02:08:10;13.97;;;2.20;;
21392;SDS011;10857;52.228;21.026;2024-01-27T02:10:37;13.40;;;2.20;;
21392;SDS011;10857;52.228;21.026;2024-01-27T02:13:04;10.90;;;2.50;;
21392;SDS011;10857;52.228;21.026;2024-01-27T02:15:46;17.30;;;2.50;;
21392;SDS011;10857;52.228;21.026;2024-01-27T02:18:15;10.80;;;2.50;;
21392;SDS011;10857;52.228;21.026;2024-01-27T02:20:43;8.57;;;2.60;;
21392;SDS011;10857;52.228;21.026;2024-01-27T02:23:10;9.53;;;2.60;;
21392;SDS011;10857;52.228;21.026;2024-01-27T02:25:37;16.20;;;2.57;;
21392;SDS011;10857;52.228;21.026;2024-01-27T02:28:04;13.57;;;2.63;;
21392;SDS011;10857;52.228;21.026;2024-01-27T02:30:32;13.03;;;3.03;;
21392;SDS011;10857;52.228;21.026;2024-01-27T02:32:59;11.83;;;2.80;;
21392;SDS011;10857;52.228;21.026;2024-01-27T02:35:26;17.00;;;3.00;;
21392;SDS011;10857;52.228;21.026;2024-01-27T02:37:53;15.80;;;2.43;;
21392;SDS011;10857;52.228;21.026;2024-01-27T02:40:20;13.67;;;2.53;;
21392;SDS011;10857;52.228;21.026;2024-01-27T02:42:47;14.20;;;2.50;;
21392;SDS011;10857;52.228;21.026;2024-01-27T02:45:14;19.10;;;2.67;;
21392;SDS011;10857;52.228;21.026;2024-01-27T02:47:42;14.80;;;2.73;;
21392;SDS011;10857;52.228;21.026;2024-01-27T02:50:09;14.17;;;2.47;;
21392;SDS011;10857;52.228;21.026;2024-01-27T02:52:36;12.60;;;2.80;;
21392;SDS011;10857;52.228;21.026;2024-01-27T02:55:03;12.90;;;2.80;;
21392;SDS011;10857;52.228;21.026;2024-01-27T02:57:30;12.77;;;2.80;;
21392;SDS011;10857;52.228;21.026;2024-01-27T02:59:57;10.43;;;2.00;;
21392;SDS011;10857;52.228;21.026;2024-01-27T03:02:25;9.43;;;2.50;;
21392;SDS011;10857;52.228;21.026;2024-01-27T03:04:52;14.33;;;2.37;;
21392;SDS011;10857;52.228;21.026;2024-01-27T03:07:19;16.27;;;2.63;;
21392;SDS011;10857;52.228;21.026;2024-01-27T03:09:46;17.93;;;2.80;;
21392;SDS011;10857;52.228;21.026;2024-01-27T03:12:14;16.37;;;2.47;;
21392;SDS011;10857;52.228;21.026;2024-01-27T03:14:42;14.07;;;2.33;;
21392;SDS011;10857;52.228;21.026;2024-01-27T03:17:09;12.90;;;2.47;;
21392;SDS011;10857;52.228;21.026;2024-01-27T03:19:36;9.53;;;2.60;;
21392;SDS011;10857;52.228;21.026;2024-01-27T03:22:03;12.17;;;2.00;;
21392;SDS011;10857;52.228;21.026;2024-01-27T03:24:30;10.90;;;2.40;;
21392;SDS011;10857;52.228;21.026;2024-01-27T03:26:57;12.27;;;2.40;;
21392;SDS011;10857;52.228;21.026;2024-01-27T03:29:24;12.97;;;2.67;;
21392;SDS011;10857;52.228;21.026;2024-01-27T03:31:51;15.60;;;2.80;;
21392;SDS011;10857;52.228;21.026;2024-01-27T03:34:18;16.00;;;3.10;;
21392;SDS011;10857;52.228;21.026;2024-01-27T03:36:50;12.17;;;2.73;;
21392;SDS011;10857;52.228;21.026;2024-01-27T03:39:17;17.30;;;2.93;;
21392;SDS011;10857;52.228;21.026;2024-01-27T03:41:44;17.70;;;3.03;;
21392;SDS011;10857;52.228;21.026;2024-01-27T03:44:11;13.77;;;2.80;;
21392;SDS011;10857;52.228;21.026;2024-01-27T03:46:38;13.87;;;2.63;;
21392;SDS011;10857;52.228;21.026;2024-01-27T03:49:05;14.00;;;2.97;;
21392;SDS011;10857;52.228;21.026;2024-01-27T03:51:33;19.47;;;3.30;;
21392;SDS011;10857;52.228;21.026;2024-01-27T03:54:00;15.93;;;2.90;;
21392;SDS011;10857;52.228;21.026;2024-01-27T03:56:27;19.50;;;2.83;;
21392;SDS011;10857;52.228;21.026;2024-01-27T03:58:54;15.93;;;3.00;;
21392;SDS011;10857;52.228;21.026;2024-01-27T04:01:21;14.10;;;3.10;;
21392;SDS011;10857;52.228;21.026;2024-01-27T04:03:49;12.87;;;2.93;;
21392;SDS011;10857;52.228;21.026;2024-01-27T04:06:16;16.13;;;2.83;;
21392;SDS011;10857;52.228;21.026;2024-01-27T04:08:43;10.23;;;2.63;;
21392;SDS011;10857;52.228;21.026;2024-01-27T04:11:20;17.93;;;3.30;;
21392;SDS011;10857;52.228;21.026;2024-01-27T04:13:48;13.57;;;2.80;;
21392;SDS011;10857;52.228;21.026;2024-01-27T04:16:19;19.63;;;3.10;;
21392;SDS011;10857;52.228;21.026;2024-01-27T04:18:46;15.90;;;2.93;;
21392;SDS011;10857;52.228;21.026;2024-01-27T04:21:13;15.40;;;2.90;;
21392;SDS011;10857;52.228;21.026;2024-01-27T04:23:41;14.53;;;3.00;;
21392;SDS011;10857;52.228;21.026;2024-01-27T04:26:08;13.73;;;3.03;;
21392;SDS011;10857;52.228;21.026;2024-01-27T04:28:37;13.70;;;2.90;;
21392;SDS011;10857;52.228;21.026;2024-01-27T04:31:04;15.83;;;3.17;;
21392;SDS011;10857;52.228;21.026;2024-01-27T04:33:31;18.13;;;3.43;;
21392;SDS011;10857;52.228;21.026;2024-01-27T04:35:59;17.00;;;2.87;;
21392;SDS011;10857;52.228;21.026;2024-01-27T04:38:26;15.23;;;2.70;;
21392;SDS011;10857;52.228;21.026;2024-01-27T04:40:54;17.13;;;3.17;;
21392;SDS011;10857;52.228;21.026;2024-01-27T04:43:20;13.57;;;3.13;;
21392;SDS011;10857;52.228;21.026;2024-01-27T04:45:47;15.40;;;3.00;;
21392;SDS011;10857;52.228;21.026;2024-01-27T04:48:17;18.43;;;3.33;;
21392;SDS011;10857;52.228;21.026;2024-01-27T04:50:45;16.73;;;3.17;;
21392;SDS011;10857;52.228;21.026;2024-01-27T04:53:13;20.63;;;3.77;;
21392;SDS011;10857;52.228;21.026;2024-01-27T04:55:39;13.87;;;3.17;;
21392;SDS011;10857;52.228;21.026;2024-01-27T04:58:07;16.57;;;3.30;;
21392;SDS011;10857;52.228;21.026;2024-01-27T05:00:34;22.37;;;3.50;;
21392;SDS011;10857;52.228;21.026;2024-01-27T05:03:01;19.30;;;3.30;;
21392;SDS011;10857;52.228;21.026;2024-01-27T05:05:31;19.03;;;3.90;;
21392;SDS011;10857;52.228;21.026;2024-01-27T05:08:02;17.27;;;3.93;;
21392;SDS011;10857;52.228;21.026;2024-01-27T05:10:30;21.17;;;3.83;;
21392;SDS011;10857;52.228;21.026;2024-01-27T05:12:57;19.17;;;3.83;;
21392;SDS011;10857;52.228;21.026;2024-01-27T05:15:24;24.73;;;3.87;;
21392;SDS011;10857;52.228;21.026;2024-01-27T05:17:51;17.57;;;3.67;;
21392;SDS011;10857;52.228;21.026;2024-01-27T05:20:18;16.57;;;3.67;;
21392;SDS011;10857;52.228;21.026;2024-01-27T05:22:45;17.47;;;4.00;;
21392;SDS011;10857;52.228;21.026;2024-01-27T05:25:13;18.20;;;3.70;;
21392;SDS011;10857;52.228;21.026;2024-01-27T05:27:40;15.10;;;3.23;;
21392;SDS011;10857;52.228;21.026;2024-01-27T05:30:07;20.53;;;3.43;;
21392;SDS011;10857;52.228;21.026;2024-01-27T05:32:35;16.70;;;3.27;;
21392;SDS011;10857;52.228;21.026;2024-01-27T05:35:02;19.03;;;3.83;;
21392;SDS011;10857;52.228;21.026;2024-01-27T05:37:31;26.10;;;4.20;;
21392;SDS011;10857;52.228;21.026;2024-01-27T05:39:58;13.47;;;3.23;;
21392;SDS011;10857;52.228;21.026;2024-01-27T05:42:25;16.83;;;3.50;;
21392;SDS011;10857;52.228;21.026;2024-01-27T05:44:52;15.47;;;3.50;;
21392;SDS011;10857;52.228;21.026;2024-01-27T05:47:19;19.43;;;3.63;;
21392;SDS011;10857;52.228;21.026;2024-01-27T05:49:46;15.60;;;3.77;;
21392;SDS011;10857;52.228;21.026;2024-01-27T05:52:14;16.47;;;3.13;;
21392;SDS011;10857;52.228;21.026;2024-01-27T05:54:51;22.67;;;3.60;;
21392;SDS011;10857;52.228;21.026;2024-01-27T05:57:18;15.30;;;3.80;;
21392;SDS011;10857;52.228;21.026;2024-01-27T05:59:46;20.00;;;4.10;;
21392;SDS011;10857;52.228;21.026;2024-01-27T06:02:13;22.50;;;3.50;;
21392;SDS011;10857;52.228;21.026;2024-01-27T06:04:40;14.97;;;4.10;;
21392;SDS011;10857;52.228;21.026;2024-01-27T06:07:07;17.17;;;4.00;;
21392;SDS011;10857;52.228;21.026;2024-01-27T06:09:36;16.50;;;3.13;;
21392;SDS011;10857;52.228;21.026;2024-01-27T06:12:04;21.43;;;3.53;;
21392;SDS011;10857;52.228;21.026;2024-01-27T06:14:31;21.93;;;3.53;;
21392;SDS011;10857;52.228;21.026;2024-01-27T06:16:58;18.27;;;4.07;;
21392;SDS011;10857;52.228;21.026;2024-01-27T06:19:27;20.10;;;4.03;;
21392;SDS011;10857;52.228;21.026;2024-01-27T06:21:55;16.33;;;4.10;;
21392;SDS011;10857;52.228;21.026;2024-01-27T06:24:22;19.30;;;3.07;;
21392;SDS011;10857;52.228;21.026;2024-01-27T06:26:49;13.53;;;3.30;;
21392;SDS011;10857;52.228;21.026;2024-01-27T06:29:16;21.97;;;4.73;;
21392;SDS011;10857;52.228;21.026;2024-01-27T06:31:44;15.83;;;3.40;;
21392;SDS011;10857;52.228;21.026;2024-01-27T06:34:11;16.10;;;3.47;;
21392;SDS011;10857;52.228;21.026;2024-01-27T06:36:38;16.63;;;3.47;;
21392;SDS011;10857;52.228;21.026;2024-01-27T06:39:06;21.43;;;3.53;;
21392;SDS011;10857;52.228;21.026;2024-01-27T06:41:34;13.03;;;3.20;;
21392;SDS011;10857;52.228;21.026;2024-01-27T06:44:01;17.27;;;3.27;;
21392;SDS011;10857;52.228;21.026;2024-01-27T06:46:29;16.60;;;3.33;;
21392;SDS011;10857;52.228;21.026;2024-01-27T06:48:56;18.83;;;3.50;;
21392;SDS011;10857;52.228;21.026;2024-01-27T06:51:24;15.00;;;3.47;;
21392;SDS011;10857;52.228;21.026;2024-01-27T06:53:51;18.30;;;3.60;;
21392;SDS011;10857;52.228;21.026;2024-01-27T06:56:18;17.03;;;3.57;;
21392;SDS011;10857;52.228;21.026;2024-01-27T06:58:45;23.37;;;3.70;;
21392;SDS011;10857;52.228;21.026;2024-01-27T07:01:12;22.77;;;4.30;;
21392;SDS011;10857;52.228;21.026;2024-01-27T07:03:39;17.00;;;4.00;;
21392;SDS011;10857;52.228;21.026;2024-01-27T07:06:07;21.73;;;4.13;;
21392;SDS011;10857;52.228;21.026;2024-01-27T07:08:34;16.23;;;3.80;;
21392;SDS011;10857;52.228;21.026;2024-01-27T07:11:04;17.53;;;4.30;;
21392;SDS011;10857;52.228;21.026;2024-01-27T07:13:31;21.93;;;4.50;;
21392;SDS011;10857;52.228;21.026;2024-01-27T07:15:59;20.47;;;4.67;;
21392;SDS011;10857;52.228;21.026;2024-01-27T07:18:26;12.37;;;3.77;;
21392;SDS011;10857;52.228;21.026;2024-01-27T07:20:53;17.73;;;4.27;;
21392;SDS011;10857;52.228;21.026;2024-01-27T07:23:21;20.10;;;4.20;;
21392;SDS011;10857;52.228;21.026;2024-01-27T07:25:48;20.80;;;4.40;;
21392;SDS011;10857;52.228;21.026;2024-01-27T07:28:15;21.77;;;4.60;;
21392;SDS011;10857;52.228;21.026;2024-01-27T07:30:45;18.17;;;4.23;;
21392;SDS011;10857;52.228;21.026;2024-01-27T07:33:12;14.27;;;4.20;;
21392;SDS011;10857;52.228;21.026;2024-01-27T07:35:40;17.63;;;4.43;;
21392;SDS011;10857;52.228;21.026;2024-01-27T07:38:07;15.47;;;4.37;;
21392;SDS011;10857;52.228;21.026;2024-01-27T07:40:35;19.13;;;4.73;;
21392;SDS011;10857;52.228;21.026;2024-01-27T07:43:02;12.30;;;3.80;;
21392;SDS011;10857;52.228;21.026;2024-01-27T07:45:29;12.30;;;3.57;;
21392;SDS011;10857;52.228;21.026;2024-01-27T07:47:57;14.73;;;4.33;;
21392;SDS011;10857;52.228;21.026;2024-01-27T07:50:27;17.90;;;4.60;;
21392;SDS011;10857;52.228;21.026;2024-01-27T07:52:54;15.93;;;4.20;;
21392;SDS011;10857;52.228;21.026;2024-01-27T07:55:21;17.97;;;4.30;;
21392;SDS011;10857;52.228;21.026;2024-01-27T07:57:48;14.43;;;4.13;;
21392;SDS011;10857;52.228;21.026;2024-01-27T08:00:22;16.73;;;4.80;;
21392;SDS011;10857;52.228;21.026;2024-01-27T08:02:49;14.67;;;5.10;;
21392;SDS011;10857;52.228;21.026;2024-01-27T08:05:16;16.87;;;5.00;;
21392;SDS011;10857;52.228;21.026;2024-01-27T08:07:47;17.90;;;4.67;;
21392;SDS011;10857;52.228;21.026;2024-01-27T08:10:14;19.83;;;5.17;;
21392;SDS011;10857;52.228;21.026;2024-01-27T08:12:41;17.20;;;5.27;;
21392;SDS011;10857;52.228;21.026;2024-01-27T08:15:09;16.03;;;5.37;;
21392;SDS011;10857;52.228;21.026;2024-01-27T08:17:36;19.83;;;5.50;;
21392;SDS011;10857;52.228;21.026;2024-01-27T08:20:03;15.13;;;5.53;;
21392;SDS011;10857;52.228;21.026;2024-01-27T08:22:31;13.97;;;5.50;;
21392;SDS011;10857;52.228;21.026;2024-01-27T08:24:59;18.10;;;5.27;;
21392;SDS011;10857;52.228;21.026;2024-01-27T08:27:26;22.23;;;6.00;;
21392;SDS011;10857;52.228;21.026;2024-01-27T08:29:53;14.90;;;5.93;;
21392;SDS011;10857;52.228;21.026;2024-01-27T08:32:23;16.97;;;6.10;;
21392;SDS011;10857;52.228;21.026;2024-01-27T08:34:51;18.53;;;4.97;;
21392;SDS011;10857;52.228;21.026;2024-01-27T08:37:18;18.63;;;6.13;;
21392;SDS011;10857;52.228;21.026;2024-01-27T08:39:46;19.93;;;6.30;;
21392;SDS011;10857;52.228;21.026;2024-01-27T08:42:13;17.67;;;6.10;;
21392;SDS011;10857;52.228;21.026;2024-01-27T08:44:40;20.87;;;6.13;;
21392;SDS011;10857;52.228;21.026;2024-01-27T08:47:07;20.13;;;5.80;;
21392;SDS011;10857;52.228;21.026;2024-01-27T08:49:35;16.97;;;6.00;;
21392;SDS011;10857;52.228;21.026;2024-01-27T08:52:02;15.80;;;5.97;;
21392;SDS011;10857;52.228;21.026;2024-01-27T08:54:29;20.27;;;6.50;;
21392;SDS011;10857;52.228;21.026;2024-01-27T08:56:57;19.10;;;6.23;;
21392;SDS011;10857;52.228;21.026;2024-01-27T08:59:24;17.13;;;6.03;;
21392;SDS011;10857;52.228;21.026;2024-01-27T09:01:51;16.53;;;6.17;;
21392;SDS011;10857;52.228;21.026;2024-01-27T09:04:18;19.60;;;6.43;;
21392;SDS011;10857;52.228;21.026;2024-01-27T09:06:45;16.50;;;5.50;;
21392;SDS011;10857;52.228;21.026;2024-01-27T09:09:12;20.87;;;6.47;;
21392;SDS011;10857;52.228;21.026;2024-01-27T09:11:40;19.47;;;6.30;;
21392;SDS011;10857;52.228;21.026;2024-01-27T09:14:07;14.13;;;6.00;;
21392;SDS011;10857;52.228;21.026;2024-01-27T09:16:34;15.63;;;6.03;;
21392;SDS011;10857;52.228;21.026;2024-01-27T09:19:01;14.73;;;5.80;;
21392;SDS011;10857;52.228;21.026;2024-01-27T09:21:29;16.40;;;5.97;;
21392;SDS011;10857;52.228;21.026;2024-01-27T09:23:57;16.33;;;6.00;;
21392;SDS011;10857;52.228;21.026;2024-01-27T09:26:25;12.87;;;6.20;;
21392;SDS011;10857;52.228;21.026;2024-01-27T09:28:52;17.07;;;5.70;;
21392;SDS011;10857;52.228;21.026;2024-01-27T09:31:22;16.83;;;5.70;;
21392;SDS011;10857;52.228;21.026;2024-01-27T09:33:50;16.63;;;5.80;;
21392;SDS011;10857;52.228;21.026;2024-01-27T09:36:21;14.77;;;5.90;;
21392;SDS011;10857;52.228;21.026;2024-01-27T09:38:49;13.43;;;5.20;;
21392;SDS011;10857;52.228;21.026;2024-01-27T09:41:17;18.83;;;6.07;;
21392;SDS011;10857;52.228;21.026;2024-01-27T09:43:45;10.37;;;4.73;;
21392;SDS011;10857;52.228;21.026;2024-01-27T09:46:13;13.70;;;5.10;;
21392;SDS011;10857;52.228;21.026;2024-01-27T09:48:41;11.77;;;4.47;;
21392;SDS011;10857;52.228;21.026;2024-01-27T09:51:09;12.03;;;5.13;;
21392;SDS011;10857;52.228;21.026;2024-01-27T09:53:37;11.70;;;4.90;;
21392;SDS011;10857;52.228;21.026;2024-01-27T09:56:04;11.37;;;4.37;;
21392;SDS011;10857;52.228;21.026;2024-01-27T09:58:33;12.13;;;4.30;;
21392;SDS011;10857;52.228;21.026;2024-01-27T10:01:01;9.33;;;4.30;;
21392;SDS011;10857;52.228;21.026;2024-01-27T10:03:29;9.80;;;3.90;;
21392;SDS011;10857;52.228;21.026;2024-01-27T10:05:57;11.67;;;4.30;;
21392;SDS011;10857;52.228;21.026;2024-01-27T10:08:25;10.30;;;3.70;;
21392;SDS011;10857;52.228;21.026;2024-01-27T10:10:55;8.17;;;3.83;;
21392;SDS011;10857;52.228;21.026;2024-01-27T10:13:23;7.37;;;3.70;;
21392;SDS011;10857;52.228;21.026;2024-01-27T10:16:03;8.67;;;4.30;;
21392;SDS011;10857;52.228;21.026;2024-01-27T10:18:36;9.67;;;4.20;;
21392;SDS011;10857;52.228;21.026;2024-01-27T10:21:13;8.47;;;3.90;;
21392;SDS011;10857;52.228;21.026;2024-01-27T10:23:45;8.17;;;3.93;;
21392;SDS011;10857;52.228;21.026;2024-01-27T10:26:13;10.47;;;4.50;;
21392;SDS011;10857;52.228;21.026;2024-01-27T10:28:40;10.43;;;4.10;;
21392;SDS011;10857;52.228;21.026;2024-01-27T10:31:10;8.30;;;4.33;;
21392;SDS011;10857;52.228;21.026;2024-01-27T10:33:38;12.17;;;4.47;;
21392;SDS011;10857;52.228;21.026;2024-01-27T10:36:05;7.37;;;3.87;;
21392;SDS011;10857;52.228;21.026;2024-01-27T10:38:36;8.47;;;4.77;;
21392;SDS011;10857;52.228;21.026;2024-01-27T10:41:09;10.10;;;3.67;;
21392;SDS011;10857;52.228;21.026;2024-01-27T10:43:37;7.30;;;3.90;;
21392;SDS011;10857;52.228;21.026;2024-01-27T10:46:07;9.13;;;4.60;;
21392;SDS011;10857;52.228;21.026;2024-01-27T10:48:35;7.97;;;4.47;;
21392;SDS011;10857;52.228;21.026;2024-01-27T10:51:07;8.70;;;4.60;;
21392;SDS011;10857;52.228;21.026;2024-01-27T10:53:36;7.90;;;4.57;;
21392;SDS011;10857;52.228;21.026;2024-01-27T10:56:06;8.07;;;4.57;;
21392;SDS011;10857;52.228;21.026;2024-01-27T10:58:37;7.73;;;3.90;;
21392;SDS011;10857;52.228;21.026;2024-01-27T11:01:10;8.70;;;4.67;;
21392;SDS011;10857;52.228;21.026;2024-01-27T11:03:39;8.27;;;4.87;;
21392;SDS011;10857;52.228;21.026;2024-01-27T11:06:06;9.97;;;4.57;;
21392;SDS011;10857;52.228;21.026;2024-01-27T11:08:34;7.73;;;4.50;;
21392;SDS011;10857;52.228;21.026;2024-01-27T11:11:08;7.23;;;4.00;;
21392;SDS011;10857;52.228;21.026;2024-01-27T11:13:35;6.73;;;4.10;;
21392;SDS011;10857;52.228;21.026;2024-01-27T11:16:04;6.47;;;4.40;;
21392;SDS011;10857;52.228;21.026;2024-01-27T11:18:31;9.10;;;4.37;;
21392;SDS011;10857;52.228;21.026;2024-01-27T11:20:59;6.70;;;4.40;;
21392;SDS011;10857;52.228;21.026;2024-01-27T11:23:33;7.27;;;4.53;;
21392;SDS011;10857;52.228;21.026;2024-01-27T11:26:03;7.53;;;4.50;;
21392;SDS011;10857;52.228;21.026;2024-01-27T11:28:30;8.27;;;4.37;;
21392;SDS011;10857;52.228;21.026;2024-01-27T11:30:58;8.67;;;4.63;;
21392;SDS011;10857;52.228;21.026;2024-01-27T11:33:29;7.53;;;4.43;;
21392;SDS011;10857;52.228;21.026;2024-01-27T11:36:00;7.93;;;4.93;;
21392;SDS011;10857;52.228;21.026;2024-01-27T11:38:31;9.97;;;5.03;;
21392;SDS011;10857;52.228;21.026;2024-01-27T11:40:59;8.27;;;4.80;;
21392;SDS011;10857;52.228;21.026;2024-01-27T11:43:27;5.80;;;4.50;;
21392;SDS011;10857;52.228;21.026;2024-01-27T11:45:58;9.27;;;5.23;;
21392;SDS011;10857;52.228;21.026;2024-01-27T11:48:26;7.03;;;4.57;;
21392;SDS011;10857;52.228;21.026;2024-01-27T11:51:03;8.43;;;4.87;;
21392;SDS011;10857;52.228;21.026;2024-01-27T11:53:38;7.50;;;5.07;;
21392;SDS011;10857;52.228;21.026;2024-01-27T11:56:05;7.43;;;4.80;;
21392;SDS011;10857;52.228;21.026;2024-01-27T11:58:33;8.33;;;5.20;;
21392;SDS011;10857;52.228;21.026;2024-01-27T12:01:00;7.07;;;5.60;;
21392;SDS011;10857;52.228;21.026;2024-01-27T12:03:27;6.53;;;4.90;;
21392;SDS011;10857;52.228;21.026;2024-01-27T12:05:55;8.63;;;5.23;;
21392;SDS011;10857;52.228;21.026;2024-01-27T12:08:23;9.97;;;5.53;;
21392;SDS011;10857;52.228;21.026;2024-01-27T12:10:50;7.53;;;5.30;;
21392;SDS011;10857;52.228;21.026;2024-01-27T12:13:18;9.70;;;5.13;;
21392;SDS011;10857;52.228;21.026;2024-01-27T12:15:45;8.40;;;5.60;;
21392;SDS011;10857;52.228;21.026;2024-01-27T12:18:14;8.43;;;5.90;;
21392;SDS011;10857;52.228;21.026;2024-01-27T12:20:44;8.37;;;5.63;;
21392;SDS011;10857;52.228;21.026;2024-01-27T12:23:11;8.67;;;5.73;;
21392;SDS011;10857;52.228;21.026;2024-01-27T12:25:38;8.97;;;5.93;;
21392;SDS011;10857;52.228;21.026;2024-01-27T12:28:06;8.60;;;5.77;;
21392;SDS011;10857;52.228;21.026;2024-01-27T12:30:34;8.33;;;5.63;;
21392;SDS011;10857;52.228;21.026;2024-01-27T12:33:02;8.13;;;5.33;;
21392;SDS011;10857;52.228;21.026;2024-01-27T12:35:36;10.23;;;6.33;;
21392;SDS011;10857;52.228;21.026;2024-01-27T12:38:05;10.70;;;6.80;;
21392;SDS011;10857;52.228;21.026;2024-01-27T12:40:32;11.57;;;6.67;;
21392;SDS011;10857;52.228;21.026;2024-01-27T12:42:59;9.60;;;6.13;;
21392;SDS011;10857;52.228;21.026;2024-01-27T12:45:26;8.73;;;5.90;;
21392;SDS011;10857;52.228;21.026;2024-01-27T12:47:56;9.93;;;6.67;;
21392;SDS011;10857;52.228;21.026;2024-01-27T12:50:24;9.60;;;6.47;;
21392;SDS011;10857;52.228;21.026;2024-01-27T12:52:51;8.20;;;6.10;;
21392;SDS011;10857;52.228;21.026;2024-01-27T12:55:19;7.63;;;5.43;;
21392;SDS011;10857;52.228;21.026;2024-01-27T12:57:46;11.07;;;6.07;;
21392;SDS011;10857;52.228;21.026;2024-01-27T13:00:14;10.40;;;6.27;;
21392;SDS011;10857;52.228;21.026;2024-01-27T13:02:41;9.53;;;6.13;;
21392;SDS011;10857;52.228;21.026;2024-01-27T13:05:09;10.07;;;6.13;;
21392;SDS011;10857;52.228;21.026;2024-01-27T13:07:36;8.20;;;5.77;;
21392;SDS011;10857;52.228;21.026;2024-01-27T13:10:03;9.87;;;5.50;;
21392;SDS011;10857;52.228;21.026;2024-01-27T13:12:31;8.57;;;5.57;;
21392;SDS011;10857;52.228;21.026;2024-01-27T13:14:58;7.47;;;5.90;;
21392;SDS011;10857;52.228;21.026;2024-01-27T13:17:25;9.50;;;5.67;;
21392;SDS011;10857;52.228;21.026;2024-01-27T13:19:52;9.33;;;5.50;;
21392;SDS011;10857;52.228;21.026;2024-01-27T13:22:20;8.20;;;5.23;;
21392;SDS011;10857;52.228;21.026;2024-01-27T13:24:50;7.73;;;5.10;;
21392;SDS011;10857;52.228;21.026;2024-01-27T13:27:17;8.23;;;4.70;;
21392;SDS011;10857;52.228;21.026;2024-01-27T13:29:44;7.70;;;4.40;;
21392;SDS011;10857;52.228;21.026;2024-01-27T13:32:12;7.47;;;5.10;;
21392;SDS011;10857;52.228;21.026;2024-01-27T13:34:40;7.63;;;5.23;;
21392;SDS011;10857;52.228;21.026;2024-01-27T13:37:07;7.53;;;5.10;;
21392;SDS011;10857;52.228;21.026;2024-01-27T13:39:35;8.10;;;5.43;;
21392;SDS011;10857;52.228;21.026;2024-01-27T13:42:02;8.90;;;5.60;;
21392;SDS011;10857;52.228;21.026;2024-01-27T13:44:31;8.77;;;5.30;;
21392;SDS011;10857;52.228;21.026;2024-01-27T13:47:02;8.07;;;5.60;;
21392;SDS011;10857;52.228;21.026;2024-01-27T13:49:32;9.67;;;6.23;;
21392;SDS011;10857;52.228;21.026;2024-01-27T13:51:59;8.23;;;5.90;;
21392;SDS011;10857;52.228;21.026;2024-01-27T13:54:31;7.37;;;4.87;;
21392;SDS011;10857;52.228;21.026;2024-01-27T13:57:01;7.37;;;5.23;;
21392;SDS011;10857;52.228;21.026;2024-01-27T13:59:29;7.30;;;5.20;;
21392;SDS011;10857;52.228;21.026;2024-01-27T14:01:56;8.27;;;5.13;;
21392;SDS011;10857;52.228;21.026;2024-01-27T14:04:24;7.07;;;4.80;;
21392;SDS011;10857;52.228;21.026;2024-01-27T14:06:51;6.80;;;4.80;;
21392;SDS011;10857;52.228;21.026;2024-01-27T14:09:33;7.87;;;5.40;;
21392;SDS011;10857;52.228;21.026;2024-01-27T14:12:00;5.83;;;4.67;;
21392;SDS011;10857;52.228;21.026;2024-01-27T14:14:27;7.60;;;5.57;;
21392;SDS011;10857;52.228;21.026;2024-01-27T14:16:55;7.07;;;4.80;;
21392;SDS011;10857;52.228;21.026;2024-01-27T14:19:22;7.17;;;5.00;;
21392;SDS011;10857;52.228;21.026;2024-01-27T14:21:50;7.47;;;5.30;;
21392;SDS011;10857;52.228;21.026;2024-01-27T14:24:17;7.00;;;5.00;;
21392;SDS011;10857;52.228;21.026;2024-01-27T14:26:44;7.03;;;4.70;;
21392;SDS011;10857;52.228;21.026;2024-01-27T14:29:11;8.47;;;5.03;;